Time;durP1;ratioP1;P1;durP2;ratioP2;P2;SDS_P1;SDS_P2;PMS_P1;PMS_P2;Temp;Humidity;BMP_temperature;BMP_pressure;BME280_temperature;BME280_humidity;BME280_pressure;Samples;Min_cycle;Max_cycle;Signal;HPM_P1;HPM_P2
2022/11/14 00:00:33;;;;;;;0.52;0.47;;;;;;;13.31;100.00;102289.13;2618172;54;20205;-64
2022/11/14 00:03:04;;;;;;;0.00;0.00;;;;;;;13.65;100.00;102288.38;2617248;54;20137;-64
2022/11/14 00:05:34;;;;;;;0.68;0.68;;;;;;;13.44;100.00;102298.09;2617514;54;20141;-64
2022/11/14 00:08:05;;;;;;;0.20;0.20;;;;;;;13.15;100.00;102278.56;2617651;54;20192;-64
2022/11/14 00:10:35;;;;;;;1.90;0.60;;;;;;;13.19;100.00;102287.09;2617628;47;20180;-64
2022/11/14 00:13:07;;;;;;;1.57;1.40;;;;;;;13.25;100.00;102282.44;2618325;39;20692;-65
2022/11/14 00:15:37;;;;;;;0.60;0.60;;;;;;;13.50;100.00;102274.31;2617700;54;20175;-65
2022/11/14 00:18:07;;;;;;;0.00;0.00;;;;;;;13.77;100.00;102274.75;2617822;54;20184;-65
2022/11/14 00:20:38;;;;;;;0.10;0.10;;;;;;;13.92;100.00;102284.47;2617515;54;20693;-64
2022/11/14 00:23:08;;;;;;;0.00;0.00;;;;;;;13.63;100.00;102269.38;2617485;54;20205;-64
2022/11/14 00:25:38;;;;;;;8.03;1.43;;;;;;;13.62;100.00;102267.66;2617373;47;20240;-64
2022/11/14 00:28:10;;;;;;;0.50;0.50;;;;;;;13.53;100.00;102268.94;2617389;54;20286;-65
2022/11/14 00:30:40;;;;;;;2.07;0.43;;;;;;;13.74;100.00;102265.31;2617828;54;20248;-65
2022/11/14 00:33:10;;;;;;;0.25;0.25;;;;;;;13.52;100.00;102256.84;2617524;54;20746;-64
2022/11/14 00:35:56;;;;;;;0.08;0.08;;;;;;;13.37;100.00;102268.81;2618358;54;20157;-64
2022/11/14 00:38:26;;;;;;;1.73;0.90;;;;;;;13.60;100.00;102258.16;2617112;54;20172;-64
2022/11/14 00:40:56;;;;;;;0.30;0.30;;;;;;;13.67;100.00;102257.88;2616948;54;20142;-64
2022/11/14 00:43:29;;;;;;;2.47;0.57;;;;;;;13.31;100.00;102260.44;2617174;54;20154;-64
2022/11/14 00:45:59;;;;;;;0.47;0.47;;;;;;;12.89;100.00;102253.63;2617889;54;20154;-65
2022/11/14 00:48:29;;;;;;;0.97;0.87;;;;;;;12.75;100.00;102255.19;2617751;54;20577;-65
2022/11/14 00:51:00;;;;;;;0.43;0.43;;;;;;;13.11;100.00;102253.56;2617987;54;20152;-65
2022/11/14 00:53:30;;;;;;;1.70;1.07;;;;;;;12.99;100.00;102246.25;2617730;54;20154;-64
2022/11/14 00:56:00;;;;;;;3.20;0.87;;;;;;;13.05;100.00;102245.97;2617442;54;20146;-65
2022/11/14 00:58:33;;;;;;;2.07;1.97;;;;;;;13.55;100.00;102247.09;2617542;54;20225;-64
2022/11/14 01:01:03;;;;;;;0.23;0.23;;;;;;;13.48;100.00;102247.47;2617364;54;20157;-65
2022/11/14 01:03:33;;;;;;;2.00;1.60;;;;;;;13.25;100.00;102245.94;2617237;54;20161;-65
2022/11/14 01:06:07;;;;;;;0.00;0.00;;;;;;;13.59;100.00;102248.66;2617774;54;20157;-64
2022/11/14 01:08:37;;;;;;;1.70;1.40;;;;;;;13.14;100.00;102242.97;2617358;54;20182;-65
2022/11/14 01:11:11;;;;;;;1.83;0.53;;;;;;;12.75;100.00;102244.75;2617873;39;20596;-64
2022/11/14 01:13:45;;;;;;;0.57;0.57;;;;;;;12.64;100.00;102243.47;2617835;54;20153;-64
2022/11/14 01:16:15;;;;;;;1.17;0.70;;;;;;;12.54;100.00;102236.97;2618088;39;20581;-65
2022/11/14 01:18:45;;;;;;;2.43;1.77;;;;;;;12.59;100.00;102242.84;2617117;54;20768;-65
2022/11/14 01:21:16;;;;;;;1.60;0.97;;;;;;;12.71;100.00;102238.84;2617863;39;20471;-65
2022/11/14 01:23:46;;;;;;;0.93;0.93;;;;;;;13.03;100.00;102234.78;2618588;39;20629;-65
2022/11/14 01:26:16;;;;;;;0.43;0.43;;;;;;;12.99;100.00;102235.84;2618282;54;20235;-64
2022/11/14 01:28:49;;;;;;;0.80;0.80;;;;;;;13.05;100.00;102227.72;2618267;54;20254;-66
2022/11/14 01:31:21;;;;;;;0.80;0.60;;;;;;;13.06;100.00;102229.44;2617982;54;20177;-64
2022/11/14 01:33:52;;;;;;;1.50;1.40;;;;;;;13.29;100.00;102225.78;2618016;47;20718;-64
2022/11/14 01:36:23;;;;;;;0.30;0.30;;;;;;;13.15;100.00;102216.00;2617984;54;20164;-65
2022/11/14 01:38:56;;;;;;;1.47;1.37;;;;;;;13.39;100.00;102217.47;2618131;54;20217;-65
2022/11/14 01:41:26;;;;;;;0.10;0.10;;;;;;;13.70;100.00;102218.59;2618126;54;20156;-65
2022/11/14 01:43:59;;;;;;;2.27;0.73;;;;;;;13.57;100.00;102216.56;2617685;54;20173;-65
2022/11/14 01:46:32;;;;;;;4.43;2.20;;;;;;;13.13;100.00;102220.44;2617624;54;20145;-65
2022/11/14 01:49:08;;;;;;;4.27;0.63;;;;;;;13.19;100.00;102214.97;2618301;54;20149;-65
2022/11/14 01:51:43;;;;;;;1.10;0.97;;;;;;;13.26;100.00;102210.28;2618396;54;20145;-65
2022/11/14 01:54:18;;;;;;;1.02;0.85;;;;;;;13.24;100.00;102218.16;2618283;54;20212;-65
2022/11/14 01:56:51;;;;;;;4.30;1.70;;;;;;;13.23;100.00;102218.25;2618580;54;20185;-65
2022/11/14 01:59:27;;;;;;;0.43;0.43;;;;;;;13.49;100.00;102208.28;2618184;54;20169;-65
2022/11/14 02:02:02;;;;;;;2.57;1.87;;;;;;;12.89;100.00;102211.09;2618744;54;20697;-65
2022/11/14 02:04:37;;;;;;;0.70;0.43;;;;;;;13.11;100.00;102202.28;2618390;54;20152;-65
2022/11/14 02:07:09;;;;;;;0.63;0.63;;;;;;;13.10;100.00;102205.78;2618826;31;20682;-65
2022/11/14 02:09:42;;;;;;;6.43;0.83;;;;;;;12.92;100.00;102216.19;2618373;54;20153;-64
2022/11/14 02:12:16;;;;;;;0.53;0.53;;;;;;;13.22;100.00;102211.34;2619247;54;20197;-64
2022/11/14 02:14:52;;;;;;;0.20;0.20;;;;;;;12.90;100.00;102212.81;2618173;54;20153;-65
2022/11/14 02:17:22;;;;;;;0.40;0.40;;;;;;;12.79;100.00;102215.06;2617712;54;20277;-64
2022/11/14 02:20:16;;;;;;;0.00;0.00;;;;;;;13.10;100.00;102199.75;2618286;54;20145;-65
2022/11/14 02:22:46;;;;;;;1.60;1.37;;;;;;;12.81;100.00;102213.22;2618006;54;20252;-65
2022/11/14 02:25:19;;;;;;;0.00;0.00;;;;;;;13.13;100.00;102203.03;2618009;54;20788;-65
2022/11/14 02:27:49;;;;;;;0.10;0.10;;;;;;;13.24;100.00;102210.34;2619045;39;20533;-66
2022/11/14 02:30:23;;;;;;;0.65;0.65;;;;;;;13.49;100.00;102208.28;2618158;54;20172;-65
2022/11/14 02:32:53;;;;;;;0.40;0.40;;;;;;;13.16;100.00;102209.84;2617932;54;20208;-64
